Detalii statie CEREAMIN SMEENI [00001CFD]

Toti senzorii

Date Temperatura solului [C]Precipitatii [mm]Voltaj baterie [mV]Leaf Wetness [Min]HC Air temperature [C]HC Relative humidity [%]Punctul de roua [C]
medieminmaxsumaultimatimpmedieminmaxmediemediemin
2019-08-15 20:00:00 25.6 25.3 26 0 7080 19.8 19.09 20.59 58.97 11.3 11.3
2019-08-15 21:00:00 25.1 24.9 25.5 0 7010 18.63 18.24 19.12 62.87 11.2 11.2
2019-08-15 22:00:00 24.6 24.5 24.9 0 6942 18.09 17.87 18.3 64.42 11.1 10.9
2019-08-15 23:00:00 24.2 24 24.6 0 6874 17.8 17.71 17.91 64.67 10.8 10.8
2019-08-16 00:00:00 23.8 23.7 24 0 6864 17.91 17.65 18.1 64.27 10.9 10.8
2019-08-16 01:00:00 23.6 23.5 23.7 0 6884 18.06 18.01 18.16 63.66 10.9 10.7
2019-08-16 02:00:00 23.4 23.3 23.5 0 6894 18.23 18.19 18.25 61.64 10.6 10.3
2019-08-16 03:00:00 23.1 23 23.3 0 6884 18.3 18.18 18.39 60.39 10.3 10.2
2019-08-16 04:00:00 23 22.8 23.1 0 6884 18.08 17.65 18.37 62.05 10.5 10.2
2019-08-16 05:00:00 22.8 22.8 23 0 6864 17.67 17.37 17.94 63.96 10.6 10.3
2019-08-16 06:00:00 22.6 22.5 22.9 0 6854 17.89 17.74 17.98 60.56 9.9 9.8
2019-08-16 07:00:00 22.4 22.4 22.6 0 6932 18.39 17.92 18.67 59.36 10.2 9.9
2019-08-16 08:00:00 22.5 22.4 22.6 0 7060 19.56 18.87 19.98 52.9 9.4 9
2019-08-16 09:00:00 22.5 22.4 22.7 0 7158 20.26 20.1 20.52 49.44 9.2 8.8
2019-08-16 10:00:00 22.6 22.5 22.7 0 7206 20.42 20.05 20.77 48.48 9 8.7
2019-08-16 11:00:00 22.7 22.6 22.9 0 7264 20.43 20.23 20.63 46.77 8.4 8.1
2019-08-16 12:00:00 22.8 22.7 23.1 0 7284 21.86 20.71 23.2 43.11 8.5 8.2
2019-08-16 13:00:00 23.3 22.9 23.7 0 7284 25.5 23.88 26.75 35.54 8.8 8.2
2019-08-16 14:00:00 24.2 23.9 24.7 0 7284 26.88 25.25 28.23 32.54 8.6 7.7
2019-08-16 15:00:00 25 24.7 25.5 0 7274 27.56 26.21 28.73 32.31 9.2 8.7
2019-08-16 16:00:00 25.6 25.5 25.8 0 7274 27.66 26.08 28.32 31.84 9.1 8.4
2019-08-16 17:00:00 25.7 25.6 25.8 0 7274 26.46 23.81 27.99 37.57 10.3 8.4
2019-08-16 18:00:00 25.4 25.2 25.6 0 7254 22.64 22.14 23.86 52.59 12.2 11.7
2019-08-16 19:00:00 25 24.8 25.2 0 7166 21.22 20.42 22.17 60.43 13 12.5
2019-08-16 20:00:00 24.6 24.5 24.9 0 7080 19.3 18.03 20.38 66.87 12.8 12.3
2019-08-16 21:00:00 24.2 23.9 24.4 0 7010 17.68 16.84 18.47 70.74 12.1 11.9
2019-08-16 22:00:00 23.8 23.7 24 0 6942 18.23 17.17 18.68 74.41 13.4 12.2
2019-08-16 23:00:00 23.6 23.4 23.7 0 6884 18.29 18.16 18.52 80.25 14.7 14.5
2019-08-17 00:00:00 23.3 23.3 23.5 0 6864 17.76 17.46 18.21 83.28 14.7 14.5
2019-08-17 01:00:00 23.2 23 23.4 0 6874 17.39 17.19 17.57 84.14 14.5 14.3
2019-08-17 02:00:00 23 22.8 23.2 0 6884 17.28 16.97 17.44 85.94 14.7 14.5
2019-08-17 03:00:00 22.8 22.7 23 0 6884 16.72 16.56 16.86 90.37 15 14.8
2019-08-17 04:00:00 22.6 22.5 22.8 0 6874 16.66 16.59 16.74 87.18 14.4 14.1
2019-08-17 05:00:00 22.4 22.3 22.7 0 6854 16.41 16.22 16.64 86.25 14 13.9
2019-08-17 06:00:00 22.3 22.2 22.4 0 6854 16.37 16.28 16.65 86.28 13.9 13.8
2019-08-17 07:00:00 22.1 22 22.3 0 6904 17.7 16.9 18.68 79.73 14 13.5
2019-08-17 08:00:00 22.2 22.1 22.3 0 7128 20.07 18.91 21.52 65.05 13 12.2
2019-08-17 09:00:00 22.3 22.2 22.5 0 7294 22.47 21.72 24.76 49.39 11.1 10.2
2019-08-17 10:00:00 22.8 22.5 23.2 0 7284 25.44 23.67 26.68 36.72 9.2 8.1
2019-08-17 11:00:00 23.5 23.2 24 0 7274 27.3 26.34 28.53 31.36 8.6 7.6
2019-08-17 12:00:00 24.5 24 25 0 7274 27.76 26.76 29.03 30.2 8.3 7.6
2019-08-17 13:00:00 25.3 25.1 25.6 0 7284 27.2 26.22 28.1 29.77 7.6 6.6
2019-08-17 14:00:00 25.6 25.5 25.8 0 7264 25.82 24.93 27.51 31.6 7.4 7.1
2019-08-17 15:00:00 25.5 25.4 25.6 0 7274 26.95 24.75 29.52 31.21 8.1 7.4
2019-08-17 16:00:00 25.6 25.4 25.8 0 7274 27.92 26.53 28.75 29.64 8.2 7.3
2019-08-17 17:00:00 25.6 25.5 25.8 0 7274 27.02 26.37 27.61 32.33 8.8 7.9
2019-08-17 18:00:00 25.4 25.2 25.6 0 7226 25.74 24.83 26.36 33.89 8.3 7.7
2019-08-17 19:00:00 25 24.9 25.2 0 7138 23.55 22.99 24.48 41.82 9.6 9.2